»·PEaware :: SKY26 KFHR-KORS

SKY26 :: KFHR-KORS

FLIGHT INFORMATION

Flight Status: Arrived
Operator:
Sky High Charters
More flights by this operator :: More flights under this callsign
Pilot: Greg L. (27107)
Aircraft: CIRRUS VISIONJET
(SF50)
More flights by this aircraft type
Origin: KFHR Friday Harbor
United States
Destination: KORS Orcas Island
United States
More flights between these airports :: More routes between these airports
Route: FHR
File this flight plan on PilotEdge
Remarks:
Altitude:
(Current/Filed)
5,000ft
Speed:
(Current/Filed)
155kts
Departed: 30-Oct-20 09:37 AM
Arrived: 30-Oct-20 09:57 AM
Distance/Time
Traveled:
12nm/0:20
Distance/Time
To Go:
Arrived

Flight Plot

Page will automatically refresh every two minutes.

Flight plan parsing failed; only flown route is shown


Map Options




Map Legend


Flown Route
Filed Route
Departure Airport
Arrival Airport
Navaid (VOR, NDB)
Fix

Horizontal Profiles

Position Reports

Time Latitude Longitude Heading Altitude Ground
Speed
30-Oct-20 09:19 48.524788 -123.026038 179 115ft 0kts
30-Oct-20 09:20 48.524788 -123.026038 179 115ft 0kts
30-Oct-20 09:21 48.524788 -123.026038 179 115ft 0kts
30-Oct-20 09:22 48.524788 -123.026038 179 115ft 0kts
30-Oct-20 09:23 48.524788 -123.026038 179 115ft 0kts
30-Oct-20 09:24 48.524788 -123.026038 179 115ft 0kts
30-Oct-20 09:25 48.524788 -123.026038 179 115ft 0kts
30-Oct-20 09:26 48.524788 -123.026038 179 115ft 0kts
30-Oct-20 09:27 48.524788 -123.026038 179 115ft 0kts
30-Oct-20 09:28 48.524788 -123.026038 179 115ft 0kts
30-Oct-20 09:29 48.524788 -123.026038 179 115ft 0kts
30-Oct-20 09:30 48.524788 -123.026038 179 115ft 0kts
30-Oct-20 09:31 48.524788 -123.026038 179 115ft 0kts
30-Oct-20 09:32 48.525912 -123.025269 357 114ft 10kts
30-Oct-20 09:33 48.526553 -123.025262 78 116ft 0kts
30-Oct-20 09:34 48.526553 -123.025262 78 116ft 0kts
30-Oct-20 09:35 48.526023 -123.024625 175 112ft 11kts
30-Oct-20 09:36 48.498363 -123.019596 185 1515ft 124kts
30-Oct-20 09:37 48.443998 -123.027485 132 3220ft 246kts
30-Oct-20 09:38 48.472257 -122.983258 341 4530ft 169kts
30-Oct-20 09:39 48.519060 -122.996848 340 4996ft 172kts
30-Oct-20 09:40 48.568003 -122.983648 13 5000ft 183kts
30-Oct-20 09:41 48.617525 -122.958022 15 4994ft 187kts
30-Oct-20 09:42 48.667428 -122.931960 17 5006ft 188kts
30-Oct-20 09:43 48.717752 -122.905513 20 5001ft 188kts
30-Oct-20 09:44 48.767564 -122.878636 20 4925ft 195kts
30-Oct-20 09:45 48.814850 -122.850244 26 4116ft 170kts
30-Oct-20 09:46 48.851808 -122.809984 41 3316ft 152kts
30-Oct-20 09:47 48.887054 -122.768032 41 3196ft 153kts
30-Oct-20 09:48 48.886848 -122.727478 191 3195ft 118kts
30-Oct-20 09:49 48.868545 -122.769846 233 3196ft 124kts
30-Oct-20 09:50 48.844218 -122.804394 208 3094ft 123kts
30-Oct-20 09:51 48.815225 -122.830407 207 2489ft 119kts
30-Oct-20 09:52 48.790100 -122.852731 203 1903ft 80kts
30-Oct-20 09:53 48.768219 -122.872026 203 1265ft 85kts
30-Oct-20 09:54 48.746545 -122.891066 203 654ft 87kts
30-Oct-20 09:55 48.725467 -122.909684 196 246ft 86kts
30-Oct-20 09:56 48.707536 -122.910591 176 30ft 3kts
30-Oct-20 09:58 48.706488 -122.909530 207 34ft 2kts
30-Oct-20 09:59 48.705969 -122.909484 1 35ft 0kts
30-Oct-20 10:00 48.705969 -122.909484 1 35ft 0kts
30-Oct-20 10:01 48.705969 -122.909484 1 35ft 0kts
30-Oct-20 10:02 48.705969 -122.909484 1 35ft 0kts
30-Oct-20 10:03 48.705969 -122.909484 1 35ft 0kts
30-Oct-20 10:04 48.705969 -122.909484 1 35ft 0kts
30-Oct-20 10:05 48.705969 -122.909484 1 35ft 0kts
30-Oct-20 10:06 48.705969 -122.909484 1 35ft 0kts
30-Oct-20 10:07 48.705969 -122.909484 1 35ft 0kts
30-Oct-20 10:08 48.705969 -122.909484 1 35ft 0kts
30-Oct-20 10:09 48.705969 -122.909484 1 35ft 0kts
30-Oct-20 10:10 48.705969 -122.909484 1 35ft 0kts
30-Oct-20 10:11 48.705969 -122.909484 1 35ft 0kts
30-Oct-20 10:11 48.705969 -122.909484 1 35ft 0kts

Navigation Log

Ident Type
Flight plan parsing failed, navigation log unavailable